Latest Weather Observations for Julia Creek

IDQ60801

Issued at 1:32 pm EST Tuesday 22 August 2017 (issued every 30 minutes, with the page automatically refreshed every 10 minutes)

About weather observations | Map of weather stations | Latest weather observations for QLD | Other Formats
Station Details ID: 029058 Name: JULIA CREEK AIRPORT Lat: -20.67 Lon: 141.72 Height: 122.5 m
Data from the previous 72 hours. | See also: Recent months at Julia Creek
Date/Time
EST
Temp
°C
App
Temp
°C
Dew
Point
°C
Rel
Hum
%
Delta-T
°C
Wind Press
QNH
hPa
Press
MSL
hPa
Rain since
9am
mm
Dir  Spd
km/h
Gust
km/h
Spd
kts
Gust
kts
22/01:30pm 30.5 26.7 -1.0 13 14.9 SSE 9 17 5 9 1017.0 1016.7 0.0
22/01:00pm 29.5 25.9 -1.8 13 14.5 SSW 7 15 4 8 1017.6 1017.3 0.0
22/12:30pm 28.5 24.5 -2.6 13 14.1 SSE 9 20 5 11 1018.2 1017.9 0.0
22/12:00pm 28.3 24.0 -1.7 14 13.8 S 11 19 6 10 1018.8 1018.5 0.0
22/11:30am 27.1 22.4 -1.7 15 13.1 SSE 13 20 7 11 1019.2 1018.9 0.0
22/11:00am 26.5 21.5 -1.3 16 12.7 SE 15 22 8 12 1019.6 1019.3 0.0
22/10:30am 25.3 19.3 -1.5 17 12.1 SSE 20 30 11 16 1019.8 1019.5 0.0
22/10:00am 24.3 17.3 -0.8 19 11.3 SSE 26 33 14 18 1019.8 1019.5 0.0
22/09:30am 23.0 15.6 -0.5 21 10.6 SSE 28 35 15 19 1019.7 1019.4 0.0
22/09:00am 21.5 14.1 -0.5 23 9.8 SSE 28 37 15 20 1019.4 1019.1 0.0
22/08:30am 19.6 13.7 -0.9 25 8.9 S 20 32 11 17 1019.2 1018.9 0.0
22/08:00am 16.9 12.1 -2.2 27 7.9 S 13 19 7 10 1019.0 1018.7 0.0
22/07:57am 16.4 12.0 -2.6 27 7.7 S 11 19 6 10 1019.0 1018.7 0.0
22/07:30am 11.4 6.6 -6.0 29 6.2 S 11 11 6 6 1018.5 1018.2 0.0
22/07:00am 10.3 5.5 -6.5 30 5.8 SSE 11 11 6 6 1018.2 1017.9 0.0
22/06:30am 11.1 6.3 -6.2 29 6.1 SSE 11 11 6 6 1017.8 1017.5 0.0
22/06:00am 12.8 8.4 -5.7 27 6.8 S 9 13 5 7 1017.5 1017.2 0.0
22/05:30am 12.9 7.7 -6.1 26 6.9 SSW 13 15 7 8 1016.9 1016.6 0.0
22/05:00am 13.2 8.0 -6.4 25 7.1 SSW 13 15 7 8 1016.6 1016.3 0.0
22/04:30am 13.6 8.4 -6.6 24 7.3 SSW 13 15 7 8 1016.3 1016.0 0.0
22/04:00am 13.9 8.6 -7.4 22 7.6 SSW 13 15 7 8 1016.1 1015.8 0.0
22/03:30am 15.5 10.3 -6.1 22 8.1 SSW 13 13 7 7 1016.0 1015.6 0.0
22/03:00am 16.2 11.4 -6.1 21 8.4 SSW 11 13 6 7 1016.0 1015.6 0.0
22/02:30am 16.6 11.8 -5.8 21 8.5 SSW 11 13 6 7 1015.9 1015.5 0.0
22/02:00am 14.2 9.2 -7.8 21 7.8 SSW 11 13 6 7 1016.0 1015.6 0.0
22/01:30am 15.0 9.7 -7.7 20 8.2 SSW 13 15 7 8 1016.0 1015.6 0.0
22/01:00am 16.2 10.9 -7.4 19 8.6 SSW 13 15 7 8 1016.1 1015.8 0.0
22/12:30am 17.6 12.1 -5.6 20 9.0 SSW 15 19 8 10 1016.1 1015.8 0.0
22/12:00am 16.1 11.1 -4.4 24 8.0 SSW 13 15 7 8 1015.9 1015.5 0.0
 
Date/Time
EST
Temp
°C
App
Temp
°C
Dew
Point
°C
Rel
Hum
%
Delta-T
°C
Wind Press
QNH
hPa
Press
MSL
hPa
Rain since
9am
mm
Dir  Spd
km/h
Gust
km/h
Spd
kts
Gust
kts
21/11:30pm 15.6 12.1 -6.0 22 8.1 SE 4 6 2 3 1015.7 1015.3 0.0
21/11:00pm 17.0 13.7 -4.3 23 8.4 SE 4 4 2 2 1015.4 1015.0 0.0
21/10:30pm 17.5 14.3 -3.8 23 8.6 SE 4 4 2 2 1015.4 1015.0 0.0
21/10:00pm 18.1 14.9 -3.9 22 8.9 SE 4 6 2 3 1015.4 1015.0 0.0
21/09:30pm 18.4 15.0 -5.6 19 9.4 S 4 11 2 6 1015.3 1014.9 0.0
21/09:00pm 19.6 16.8 -3.3 21 9.5 SSW 2 2 1 1 1015.2 1014.8 0.0
21/08:30pm 21.6 18.9 -2.3 20 10.3 SSW 2 2 1 1 1015.0 1014.6 0.0
21/08:00pm 22.7 19.6 -2.8 18 11.0 SSW 4 4 2 2 1014.7 1014.3 0.0
21/07:30pm 23.9 21.0 -1.1 19 11.2 SSW 4 4 2 2 1014.4 1014.0 0.0
21/07:00pm 26.1 23.6 -0.8 17 12.4 SSW 2 2 1 1 1014.1 1013.7 0.0
21/06:30pm 27.9 25.3 -2.0 14 13.6 SSW 2 4 1 2 1013.6 1013.3 0.0
21/06:00pm 30.1 26.6 -1.3 13 14.7 SSW 7 9 4 5 1013.6 1013.3 0.0
21/05:30pm 31.3 27.8 -1.5 12 15.5 SSW 7 13 4 7 1013.4 1013.1 0.0
21/05:00pm 31.9 27.9 -2.2 11 16.0 SSW 9 15 5 8 1013.3 1013.0 0.0
21/04:30pm 32.8 29.1 -2.8 10 16.6 SW 7 24 4 13 1013.1 1012.8 0.0
21/04:00pm 32.4 28.3 -3.1 10 16.4 WSW 9 19 5 10 1013.1 1012.8 0.0
21/03:30pm 32.6 28.4 -4.3 9 16.8 WSW 9 19 5 10 1013.1 1012.8 0.0
21/03:00pm 32.6 28.5 -2.9 10 16.5 WSW 9 15 5 8 1013.2 1012.9 0.0
21/02:30pm 32.0 27.9 -3.4 10 16.3 SW 9 19 5 10 1013.5 1013.2 0.0
21/02:00pm 32.0 28.0 -2.1 11 16.0 W 9 17 5 9 1014.0 1013.6 0.0
21/01:30pm 31.2 26.7 -0.5 13 15.2 NW 13 24 7 13 1014.3 1013.9 0.0
21/01:00pm 30.7 26.3 0.2 14 14.8 N 13 19 7 10 1014.6 1014.2 0.0
21/12:30pm 29.7 24.2 0.3 15 14.2 N 19 24 10 13 1015.0 1014.6 0.0
21/12:00pm 28.6 22.7 2.0 18 13.1 N 22 30 12 16 1015.5 1015.1 0.0
21/11:30am 27.7 22.2 2.0 19 12.6 N 20 33 11 18 1016.3 1016.0 0.0
21/11:00am 26.5 20.6 1.7 20 12.0 N 22 32 12 17 1016.7 1016.4 0.0
21/10:30am 25.6 20.2 1.0 20 11.6 N 19 28 10 15 1017.2 1016.9 0.0
21/10:00am 24.3 18.6 0.6 21 11.0 NNE 20 30 11 16 1017.4 1017.1 0.0
21/09:30am 21.9 16.0 -5.9 15 11.2 NNE 17 24 9 13 1017.4 1017.1 0.0
21/09:00am 17.8 11.8 -10.9 13 9.9 NE 15 19 8 10 1017.3 1017.0 0.0
21/08:30am 13.9 8.6 -11.5 16 8.3 ENE 11 15 6 8 1017.4 1017.1 0.0
21/08:00am 10.5 5.6 -12.1 19 6.9 E 9 15 5 8 1017.1 1016.8 0.0
21/07:30am 6.9 1.9 -12.8 23 5.6 SE 9 11 5 6 1016.7 1016.4 0.0
21/07:00am 4.4 -0.6 -13.4 26 5.1 SE 9 11 5 6 1016.1 1015.8 0.0
21/06:30am 5.3 0.7 -13.1 25 5.1 SE 7 9 4 5 1015.9 1015.5 0.0
21/06:00am 4.8 -0.6 -13.5 25 5.2 SSE 11 13 6 7 1015.5 1015.1 0.0
21/05:30am 4.7 -0.7 -13.1 26 5.1 SSE 11 15 6 8 1015.2 1014.8 0.0
21/05:00am 4.5 -0.5 -13.8 25 5.2 SSE 9 11 5 6 1015.0 1014.6 0.0
21/04:30am 4.2 -1.2 -14.0 25 5.1 SSE 11 13 6 7 1014.9 1014.5 0.0
21/04:00am 5.1 -0.3 -14.3 23 5.5 SSE 11 13 6 7 1014.8 1014.4 0.0
21/03:30am 6.1 -0.1 -14.0 22 5.5 SE 15 15 8 8 1014.9 1014.5 0.0
21/03:00am 6.2 0.5 -13.4 23 5.4 SE 13 15 7 8 1015.2 1014.8 0.0
21/02:30am 6.5 1.1 -13.6 22 5.6 SSE 11 11 6 6 1015.5 1015.1 0.0
21/02:00am 7.2 1.8 -13.6 21 5.8 SE 11 13 6 7 1015.6 1015.2 0.0
21/01:30am 8.3 2.9 -13.3 20 6.2 SE 11 13 6 7 1015.9 1015.5 0.0
21/01:00am 8.2 2.9 -12.8 21 6.1 SE 11 13 6 7 1016.0 1015.6 0.0
21/12:30am 8.1 2.3 -13.5 20 6.2 SE 13 13 7 7 1016.3 1016.0 0.0
21/12:00am 9.2 3.8 -13.2 19 6.5 SE 11 13 6 7 1016.2 1015.9 0.0
 
Date/Time
EST
Temp
°C
App
Temp
°C
Dew
Point
°C
Rel
Hum
%
Delta-T
°C
Wind Press
QNH
hPa
Press
MSL
hPa
Rain since
9am
mm
Dir  Spd
km/h
Gust
km/h
Spd
kts
Gust
kts
20/11:30pm 10.4 5.1 -12.9 18 7.0 SE 11 13 6 7 1016.3 1016.0 0.0
20/11:00pm 11.9 6.2 -12.3 17 7.5 SE 13 15 7 8 1016.4 1016.1 0.0
20/10:30pm 11.2 5.5 -12.9 17 7.3 SE 13 15 7 8 1016.4 1016.1 0.0
20/10:00pm 11.4 5.6 -13.5 16 7.5 SE 13 13 7 7 1016.3 1016.0 0.0
20/09:30pm 12.7 7.0 -13.2 15 8.0 SSE 13 13 7 7 1016.4 1016.1 0.0
20/09:00pm 12.7 6.5 -14.1 14 8.1 SSE 15 15 8 8 1016.5 1016.2 0.0
20/08:30pm 14.4 8.6 -13.6 13 8.8 SSE 13 15 7 8 1016.3 1016.0 0.0
20/08:00pm 16.3 9.8 -13.1 12 9.6 SSE 17 19 9 10 1016.1 1015.8 0.0
20/07:30pm 16.7 10.5 -13.9 11 9.8 SSE 15 17 8 9 1016.0 1015.6 0.0
20/07:00pm 17.9 11.7 -14.1 10 10.4 SE 15 17 8 9 1015.8 1015.4 0.0
20/06:30pm 20.9 15.5 -14.5 8 11.9 SE 11 15 6 8 1015.6 1015.2 0.0
20/06:00pm 25.3 19.2 -12.9 7 13.9 SE 15 19 8 10 1015.5 1015.1 0.0
20/05:30pm 26.7 19.8 -13.8 6 14.8 SE 19 24 10 13 1015.5 1015.1 0.0
20/05:00pm 27.3 20.8 -13.4 6 15.0 SE 17 26 9 14 1015.4 1015.0 0.0
20/04:30pm 27.7 20.8 -13.1 6 15.2 SE 19 26 10 14 1015.4 1015.0 0.0
20/04:00pm 27.9 21.4 -12.9 6 15.3 ESE 17 28 9 15 1015.5 1015.1 0.0
20/03:30pm 28.0 21.3 -11.0 7 15.2 SE 19 28 10 15 1015.7 1015.3 0.0
20/03:00pm 28.0 22.0 -11.0 7 15.1 SE 15 22 8 12 1016.1 1015.8 0.0
20/02:30pm 27.1 21.5 -11.6 7 14.8 ESE 13 24 7 13 1016.5 1016.2 0.0
20/02:00pm 27.0 21.0 -11.7 7 14.7 ESE 15 24 8 13 1017.0 1016.7 0.0
20/01:30pm 26.7 19.9 -11.9 7 14.6 SE 19 32 10 17 1017.6 1017.3 0.0
20/01:00pm 25.8 18.9 -10.9 8 13.9 SE 20 30 11 16 1018.1 1017.8 0.0
20/12:30pm 25.3 18.5 -9.8 9 13.6 ESE 20 32 11 17 1018.9 1018.6 0.0
20/12:00pm 25.1 18.0 -8.6 10 13.3 SE 22 33 12 18 1019.5 1019.2 0.0
20/11:30am 23.9 15.6 -9.5 10 12.8 SE 28 39 15 21 1020.1 1019.8 0.0
20/11:00am 23.0 15.1 -9.0 11 12.2 SE 26 37 14 20 1020.6 1020.3 0.0
20/10:30am 21.3 12.0 -9.2 12 11.4 SE 33 41 18 22 1020.9 1020.6 0.0
20/10:00am 20.3 11.6 -9.0 13 10.9 ESE 30 37 16 20 1021.2 1020.9 0.0
20/09:30am 18.7 10.8 -8.4 15 10.0 ESE 26 39 14 21 1021.2 1020.9 0.0
20/09:00am 16.2 8.7 -8.8 17 8.9 SE 24 32 13 17 1021.2 1020.9 0.0
20/08:30am 13.5 6.0 -9.0 20 7.7 SE 24 32 13 17 1021.2 1020.9 0.0
20/08:00am 10.7 5.2 -9.6 23 6.6 SSE 13 19 7 10 1021.1 1020.8 0.0
20/07:30am 6.7 1.9 -10.9 27 5.2 S 9 11 5 6 1020.8 1020.5 0.0
20/07:00am 3.9 -1.0 -12.5 29 4.7 S 9 11 5 6 1020.4 1020.1 0.0
20/06:30am 4.0 -1.7 -12.4 29 4.8 S 13 15 7 8 1020.1 1019.8 0.0
20/06:00am 4.9 0.0 -12.0 28 4.7 SSE 9 11 5 6 1019.8 1019.5 0.0
20/05:30am 5.5 0.6 -12.4 26 5.0 SSE 9 11 5 6 1019.4 1019.1 0.0
20/05:00am 7.0 2.1 -11.6 25 5.4 SSE 9 13 5 7 1019.2 1018.9 0.0
20/04:30am 6.2 0.9 -12.3 25 5.3 SSE 11 13 6 7 1019.0 1018.7 0.0
20/04:00am 7.3 2.0 -12.4 23 5.7 SSE 11 11 6 6 1019.1 1018.8 0.0
20/03:30am 8.1 2.8 -12.3 22 6.0 SSE 11 13 6 7 1019.1 1018.8 0.0
20/03:00am 9.0 3.3 -12.1 21 6.3 SSE 13 15 7 8 1019.3 1019.0 0.0
20/02:30am 9.2 3.5 -12.0 21 6.4 SSE 13 13 7 7 1019.6 1019.3 0.0
20/02:00am 9.2 3.9 -12.6 20 6.4 SSE 11 13 6 7 1019.7 1019.4 0.0
20/01:30am 10.8 5.5 -12.5 18 7.1 SSE 11 15 6 8 1019.8 1019.5 0.0
20/01:00am 11.7 5.6 -12.5 17 7.4 SSE 15 19 8 10 1019.8 1019.5 0.0
20/12:30am 13.0 6.9 -12.2 16 8.0 SSE 15 17 8 9 1019.9 1019.6 0.0
20/12:00am 13.0 6.6 -12.2 16 8.0 SSE 17 19 9 10 1020.1 1019.8 0.0
 
Date/Time
EST
Temp
°C
App
Temp
°C
Dew
Point
°C
Rel
Hum
%
Delta-T
°C
Wind Press
QNH
hPa
Press
MSL
hPa
Rain since
9am
mm
Dir  Spd
km/h
Gust
km/h
Spd
kts
Gust
kts
19/11:30pm 13.7 6.8 -13.3 14 8.4 SSE 19 22 10 12 1020.3 1020.0 0.0
19/11:00pm 14.4 7.5 -13.6 13 8.7 SSE 19 24 10 13 1020.5 1020.2 0.0
19/10:30pm 14.6 7.7 -13.5 13 8.9 SSE 19 22 10 12 1020.4 1020.1 0.0
19/10:00pm 15.6 8.7 -13.7 12 9.3 SSE 19 22 10 12 1020.3 1020.0 0.0
19/09:30pm 13.8 7.6 -14.1 13 8.6 S 15 17 8 9 1020.2 1019.9 0.0
19/09:00pm 14.8 8.6 -15.3 11 9.1 S 15 17 8 9 1019.9 1019.6 0.0
19/08:30pm 17.4 10.8 -14.5 10 10.2 SSE 17 19 9 10 1019.5 1019.2 0.0
19/08:00pm 17.8 11.6 -15.5 9 10.5 SSE 15 17 8 9 1019.1 1018.8 0.0
19/07:30pm 19.0 12.8 -14.5 9 11.0 SSE 15 17 8 9 1018.8 1018.5 0.0
19/07:00pm 21.9 15.4 -13.8 8 12.3 SSE 17 20 9 11 1018.4 1018.1 0.0
19/06:30pm 23.9 17.0 -14.0 7 13.3 SSE 19 24 10 13 1018.2 1017.9 0.0
19/06:00pm 26.0 17.7 -14.3 6 14.4 SSE 26 35 14 19 1017.8 1017.5 0.0
19/05:30pm 27.3 18.6 -15.6 5 15.3 SSE 28 37 15 20 1017.7 1017.4 0.0
19/05:00pm 27.8 19.2 -13.0 6 15.3 SSE 28 37 15 20 1017.6 1017.3 0.0
19/04:30pm 28.6 19.9 -14.7 5 15.9 SSE 28 39 15 21 1017.6 1017.3 0.0
19/04:00pm 28.7 19.7 -14.6 5 15.9 SSE 30 39 16 21 1017.5 1017.2 0.0
19/03:30pm 29.1 20.4 -14.3 5 16.1 SSE 28 43 15 23 1017.5 1017.2 0.0
19/03:00pm 28.9 20.2 -14.5 5 16.0 SSE 28 35 15 19 1018.0 1017.7 0.0
19/02:30pm 28.7 19.7 -14.6 5 15.9 SSE 30 41 16 22 1018.3 1018.0 0.0
19/02:00pm 28.4 19.1 -12.6 6 15.5 SE 32 41 17 22 1018.8 1018.5 0.0

Other Formats:

Comma delimited format used in spreadsheet applications
http://www.bom.gov.au/fwo/IDQ60801/IDQ60801.94337.axf

JavaScript Object Notation format (JSON) in row-major order
http://www.bom.gov.au/fwo/IDQ60801/IDQ60801.94337.json